sensor_id;sensor_type;location;lat;lon;timestamp;temperature;humidity
11704;DHT22;5908;51.354;7.458;2023-04-15T00:01:49;5.70;99.90
11704;DHT22;5908;51.354;7.458;2023-04-15T00:04:15;5.70;99.90
11704;DHT22;5908;51.354;7.458;2023-04-15T00:06:49;5.60;99.90
11704;DHT22;5908;51.354;7.458;2023-04-15T00:09:17;5.60;99.90
11704;DHT22;5908;51.354;7.458;2023-04-15T00:11:44;5.60;99.90
11704;DHT22;5908;51.354;7.458;2023-04-15T00:14:11;5.50;99.90
11704;DHT22;5908;51.354;7.458;2023-04-15T00:16:38;5.50;99.90
11704;DHT22;5908;51.354;7.458;2023-04-15T00:19:05;5.50;99.90
11704;DHT22;5908;51.354;7.458;2023-04-15T00:21:32;5.40;99.90
11704;DHT22;5908;51.354;7.458;2023-04-15T00:24:00;5.40;99.90
11704;DHT22;5908;51.354;7.458;2023-04-15T00:26:26;5.30;99.90
11704;DHT22;5908;51.354;7.458;2023-04-15T00:28:53;5.30;99.90
11704;DHT22;5908;51.354;7.458;2023-04-15T00:31:20;5.30;99.90
11704;DHT22;5908;51.354;7.458;2023-04-15T00:33:47;5.30;99.90
11704;DHT22;5908;51.354;7.458;2023-04-15T00:36:14;5.30;99.90
11704;DHT22;5908;51.354;7.458;2023-04-15T00:38:41;5.20;99.90
11704;DHT22;5908;51.354;7.458;2023-04-15T00:41:09;5.20;99.90
11704;DHT22;5908;51.354;7.458;2023-04-15T00:43:36;5.20;99.90
11704;DHT22;5908;51.354;7.458;2023-04-15T00:46:04;5.20;99.90
11704;DHT22;5908;51.354;7.458;2023-04-15T00:48:31;5.10;99.90
11704;DHT22;5908;51.354;7.458;2023-04-15T00:50:58;5.10;99.90
11704;DHT22;5908;51.354;7.458;2023-04-15T00:53:25;5.00;99.90
11704;DHT22;5908;51.354;7.458;2023-04-15T00:55:52;5.00;99.90
11704;DHT22;5908;51.354;7.458;2023-04-15T00:58:20;5.00;99.90
11704;DHT22;5908;51.354;7.458;2023-04-15T01:00:47;4.90;99.90
11704;DHT22;5908;51.354;7.458;2023-04-15T01:03:18;5.00;99.90
11704;DHT22;5908;51.354;7.458;2023-04-15T01:05:45;4.90;99.90
11704;DHT22;5908;51.354;7.458;2023-04-15T01:08:12;4.90;99.90
11704;DHT22;5908;51.354;7.458;2023-04-15T01:10:39;4.80;99.90
11704;DHT22;5908;51.354;7.458;2023-04-15T01:13:06;4.80;99.90
11704;DHT22;5908;51.354;7.458;2023-04-15T01:15:34;4.70;99.90
11704;DHT22;5908;51.354;7.458;2023-04-15T01:18:02;4.70;99.90
11704;DHT22;5908;51.354;7.458;2023-04-15T01:20:28;4.70;99.90
11704;DHT22;5908;51.354;7.458;2023-04-15T01:22:55;4.70;99.90
11704;DHT22;5908;51.354;7.458;2023-04-15T01:25:30;4.70;99.90
11704;DHT22;5908;51.354;7.458;2023-04-15T01:27:57;4.70;99.90
11704;DHT22;5908;51.354;7.458;2023-04-15T01:30:24;4.70;99.90
11704;DHT22;5908;51.354;7.458;2023-04-15T01:32:52;4.60;99.90
11704;DHT22;5908;51.354;7.458;2023-04-15T01:35:19;4.60;99.90
11704;DHT22;5908;51.354;7.458;2023-04-15T01:37:45;4.60;99.90
11704;DHT22;5908;51.354;7.458;2023-04-15T01:40:12;4.50;99.90
11704;DHT22;5908;51.354;7.458;2023-04-15T01:42:41;4.50;99.90
11704;DHT22;5908;51.354;7.458;2023-04-15T01:45:08;4.50;99.90
11704;DHT22;5908;51.354;7.458;2023-04-15T01:47:35;4.50;99.90
11704;DHT22;5908;51.354;7.458;2023-04-15T01:50:02;4.50;99.90
11704;DHT22;5908;51.354;7.458;2023-04-15T01:52:29;4.50;99.90
11704;DHT22;5908;51.354;7.458;2023-04-15T01:54:56;4.40;99.90
11704;DHT22;5908;51.354;7.458;2023-04-15T01:57:23;4.40;99.90
11704;DHT22;5908;51.354;7.458;2023-04-15T01:59:51;4.30;99.90
11704;DHT22;5908;51.354;7.458;2023-04-15T02:02:17;4.30;99.90
11704;DHT22;5908;51.354;7.458;2023-04-15T02:04:44;4.30;99.90
11704;DHT22;5908;51.354;7.458;2023-04-15T02:07:11;4.30;99.90
11704;DHT22;5908;51.354;7.458;2023-04-15T02:09:38;4.30;99.90
11704;DHT22;5908;51.354;7.458;2023-04-15T02:12:04;4.20;99.90
11704;DHT22;5908;51.354;7.458;2023-04-15T02:14:31;4.20;99.90
11704;DHT22;5908;51.354;7.458;2023-04-15T02:16:59;4.20;99.90
11704;DHT22;5908;51.354;7.458;2023-04-15T02:19:31;4.20;99.90
11704;DHT22;5908;51.354;7.458;2023-04-15T02:21:58;4.20;99.90
11704;DHT22;5908;51.354;7.458;2023-04-15T02:24:26;4.10;99.90
11704;DHT22;5908;51.354;7.458;2023-04-15T02:26:52;4.20;99.90
11704;DHT22;5908;51.354;7.458;2023-04-15T02:29:19;4.20;99.90
11704;DHT22;5908;51.354;7.458;2023-04-15T02:31:47;4.10;99.90
11704;DHT22;5908;51.354;7.458;2023-04-15T02:34:15;4.10;99.90
11704;DHT22;5908;51.354;7.458;2023-04-15T02:36:42;4.00;99.90
11704;DHT22;5908;51.354;7.458;2023-04-15T02:39:08;4.00;99.90
11704;DHT22;5908;51.354;7.458;2023-04-15T02:41:37;4.00;99.90
11704;DHT22;5908;51.354;7.458;2023-04-15T02:44:04;3.90;99.90
11704;DHT22;5908;51.354;7.458;2023-04-15T02:46:31;4.00;99.90
11704;DHT22;5908;51.354;7.458;2023-04-15T02:48:58;3.90;99.90
11704;DHT22;5908;51.354;7.458;2023-04-15T02:51:29;3.90;99.90
11704;DHT22;5908;51.354;7.458;2023-04-15T02:53:56;3.90;99.90
11704;DHT22;5908;51.354;7.458;2023-04-15T02:56:23;3.90;99.90
11704;DHT22;5908;51.354;7.458;2023-04-15T02:58:50;3.90;99.90
11704;DHT22;5908;51.354;7.458;2023-04-15T03:01:20;3.80;99.90
11704;DHT22;5908;51.354;7.458;2023-04-15T03:03:47;3.80;99.90
11704;DHT22;5908;51.354;7.458;2023-04-15T03:06:13;3.80;99.90
11704;DHT22;5908;51.354;7.458;2023-04-15T03:08:42;3.80;99.90
11704;DHT22;5908;51.354;7.458;2023-04-15T03:11:08;3.80;99.90
11704;DHT22;5908;51.354;7.458;2023-04-15T03:13:35;3.80;99.90
11704;DHT22;5908;51.354;7.458;2023-04-15T03:16:04;3.80;99.90
11704;DHT22;5908;51.354;7.458;2023-04-15T03:18:31;3.70;99.90
11704;DHT22;5908;51.354;7.458;2023-04-15T03:20:58;3.70;99.90
11704;DHT22;5908;51.354;7.458;2023-04-15T03:23:24;3.70;99.90
11704;DHT22;5908;51.354;7.458;2023-04-15T03:25:52;3.70;99.90
11704;DHT22;5908;51.354;7.458;2023-04-15T03:28:20;3.70;99.90
11704;DHT22;5908;51.354;7.458;2023-04-15T03:30:47;3.70;99.90
11704;DHT22;5908;51.354;7.458;2023-04-15T03:33:13;3.60;99.90
11704;DHT22;5908;51.354;7.458;2023-04-15T03:35:40;3.60;99.90
11704;DHT22;5908;51.354;7.458;2023-04-15T03:38:07;3.60;99.90
11704;DHT22;5908;51.354;7.458;2023-04-15T03:40:34;3.60;99.90
11704;DHT22;5908;51.354;7.458;2023-04-15T03:43:02;3.60;99.90
11704;DHT22;5908;51.354;7.458;2023-04-15T03:45:29;3.60;99.90
11704;DHT22;5908;51.354;7.458;2023-04-15T03:47:56;3.60;99.90
11704;DHT22;5908;51.354;7.458;2023-04-15T03:50:22;3.60;99.90
11704;DHT22;5908;51.354;7.458;2023-04-15T03:52:49;3.60;99.90
11704;DHT22;5908;51.354;7.458;2023-04-15T03:55:16;3.60;99.90
11704;DHT22;5908;51.354;7.458;2023-04-15T03:57:43;3.60;99.90
11704;DHT22;5908;51.354;7.458;2023-04-15T04:00:11;3.50;99.90
11704;DHT22;5908;51.354;7.458;2023-04-15T04:02:38;3.50;99.90
11704;DHT22;5908;51.354;7.458;2023-04-15T04:05:05;3.50;99.90
11704;DHT22;5908;51.354;7.458;2023-04-15T04:07:32;3.50;99.90
11704;DHT22;5908;51.354;7.458;2023-04-15T04:09:59;3.50;99.90
11704;DHT22;5908;51.354;7.458;2023-04-15T04:12:26;3.40;99.90
11704;DHT22;5908;51.354;7.458;2023-04-15T04:14:52;3.40;99.90
11704;DHT22;5908;51.354;7.458;2023-04-15T04:17:20;3.40;99.90
11704;DHT22;5908;51.354;7.458;2023-04-15T04:19:47;3.40;99.90
11704;DHT22;5908;51.354;7.458;2023-04-15T04:22:14;3.40;99.90
11704;DHT22;5908;51.354;7.458;2023-04-15T04:24:40;3.30;99.90
11704;DHT22;5908;51.354;7.458;2023-04-15T04:27:07;3.30;99.90
11704;DHT22;5908;51.354;7.458;2023-04-15T04:29:34;3.30;99.90
11704;DHT22;5908;51.354;7.458;2023-04-15T04:32:01;3.40;99.90
11704;DHT22;5908;51.354;7.458;2023-04-15T04:34:29;3.40;99.90
11704;DHT22;5908;51.354;7.458;2023-04-15T04:36:57;3.30;99.90
11704;DHT22;5908;51.354;7.458;2023-04-15T04:39:23;3.30;99.90
11704;DHT22;5908;51.354;7.458;2023-04-15T04:41:50;3.30;99.90
11704;DHT22;5908;51.354;7.458;2023-04-15T04:44:17;3.40;99.90
11704;DHT22;5908;51.354;7.458;2023-04-15T04:46:44;3.40;99.90
11704;DHT22;5908;51.354;7.458;2023-04-15T04:49:10;3.40;99.90
11704;DHT22;5908;51.354;7.458;2023-04-15T04:51:38;3.30;99.90
11704;DHT22;5908;51.354;7.458;2023-04-15T04:54:05;3.40;99.90
11704;DHT22;5908;51.354;7.458;2023-04-15T04:56:32;3.30;99.90
11704;DHT22;5908;51.354;7.458;2023-04-15T04:58:59;3.40;99.90
11704;DHT22;5908;51.354;7.458;2023-04-15T05:01:26;3.40;99.90
11704;DHT22;5908;51.354;7.458;2023-04-15T05:03:52;3.40;99.90
11704;DHT22;5908;51.354;7.458;2023-04-15T05:06:19;3.40;99.90
11704;DHT22;5908;51.354;7.458;2023-04-15T05:08:48;3.50;99.90
11704;DHT22;5908;51.354;7.458;2023-04-15T05:11:14;3.50;99.90
11704;DHT22;5908;51.354;7.458;2023-04-15T05:13:41;3.60;99.90
11704;DHT22;5908;51.354;7.458;2023-04-15T05:16:08;3.70;99.90
11704;DHT22;5908;51.354;7.458;2023-04-15T05:18:35;3.70;99.90
11704;DHT22;5908;51.354;7.458;2023-04-15T05:21:02;3.80;99.90
11704;DHT22;5908;51.354;7.458;2023-04-15T05:23:29;3.90;99.90
11704;DHT22;5908;51.354;7.458;2023-04-15T05:25:57;3.90;99.90
11704;DHT22;5908;51.354;7.458;2023-04-15T05:28:23;4.00;99.90
11704;DHT22;5908;51.354;7.458;2023-04-15T05:30:50;4.00;99.90
11704;DHT22;5908;51.354;7.458;2023-04-15T05:33:17;4.10;99.90
11704;DHT22;5908;51.354;7.458;2023-04-15T05:35:44;4.10;99.90
11704;DHT22;5908;51.354;7.458;2023-04-15T05:38:10;4.20;99.90
11704;DHT22;5908;51.354;7.458;2023-04-15T05:40:37;4.30;99.90
11704;DHT22;5908;51.354;7.458;2023-04-15T05:43:05;4.30;99.90
11704;DHT22;5908;51.354;7.458;2023-04-15T05:45:32;4.40;99.90
11704;DHT22;5908;51.354;7.458;2023-04-15T05:47:58;4.50;99.90
11704;DHT22;5908;51.354;7.458;2023-04-15T05:50:25;4.50;99.90
11704;DHT22;5908;51.354;7.458;2023-04-15T05:52:52;4.60;99.90
11704;DHT22;5908;51.354;7.458;2023-04-15T05:55:19;4.70;99.90
11704;DHT22;5908;51.354;7.458;2023-04-15T05:57:46;4.80;99.90
11704;DHT22;5908;51.354;7.458;2023-04-15T06:00:15;4.90;99.90
11704;DHT22;5908;51.354;7.458;2023-04-15T06:02:41;5.00;99.90
11704;DHT22;5908;51.354;7.458;2023-04-15T06:05:08;5.20;99.90
11704;DHT22;5908;51.354;7.458;2023-04-15T06:07:36;5.40;99.90
11704;DHT22;5908;51.354;7.458;2023-04-15T06:10:03;5.50;99.90
11704;DHT22;5908;51.354;7.458;2023-04-15T06:12:31;5.60;99.90
11704;DHT22;5908;51.354;7.458;2023-04-15T06:14:58;5.70;99.90
11704;DHT22;5908;51.354;7.458;2023-04-15T06:17:26;5.70;99.90
11704;DHT22;5908;51.354;7.458;2023-04-15T06:19:53;5.80;99.90
11704;DHT22;5908;51.354;7.458;2023-04-15T06:22:20;5.90;99.90
11704;DHT22;5908;51.354;7.458;2023-04-15T06:24:47;6.00;99.90
11704;DHT22;5908;51.354;7.458;2023-04-15T06:27:14;6.10;99.90
11704;DHT22;5908;51.354;7.458;2023-04-15T06:29:41;6.20;99.90
11704;DHT22;5908;51.354;7.458;2023-04-15T06:32:08;6.40;99.90
11704;DHT22;5908;51.354;7.458;2023-04-15T06:34:36;6.50;99.90
11704;DHT22;5908;51.354;7.458;2023-04-15T06:37:03;6.60;99.90
11704;DHT22;5908;51.354;7.458;2023-04-15T06:39:29;6.70;99.90
11704;DHT22;5908;51.354;7.458;2023-04-15T06:41:57;6.80;99.90
11704;DHT22;5908;51.354;7.458;2023-04-15T06:44:23;6.90;99.90
11704;DHT22;5908;51.354;7.458;2023-04-15T06:46:50;7.00;99.90
11704;DHT22;5908;51.354;7.458;2023-04-15T06:49:17;7.10;99.90
11704;DHT22;5908;51.354;7.458;2023-04-15T06:51:45;7.20;99.90
11704;DHT22;5908;51.354;7.458;2023-04-15T06:54:12;7.30;99.90
11704;DHT22;5908;51.354;7.458;2023-04-15T06:56:38;7.20;99.90
11704;DHT22;5908;51.354;7.458;2023-04-15T06:59:06;7.30;99.90
11704;DHT22;5908;51.354;7.458;2023-04-15T07:01:33;7.40;99.90
11704;DHT22;5908;51.354;7.458;2023-04-15T07:03:59;7.50;99.90
11704;DHT22;5908;51.354;7.458;2023-04-15T07:06:26;7.70;99.90
11704;DHT22;5908;51.354;7.458;2023-04-15T07:08:54;7.90;99.90
11704;DHT22;5908;51.354;7.458;2023-04-15T07:11:21;8.10;99.90
11704;DHT22;5908;51.354;7.458;2023-04-15T07:13:48;8.20;99.90
11704;DHT22;5908;51.354;7.458;2023-04-15T07:16:15;8.30;99.90
11704;DHT22;5908;51.354;7.458;2023-04-15T07:18:41;8.30;99.90
11704;DHT22;5908;51.354;7.458;2023-04-15T07:21:09;8.50;99.90
11704;DHT22;5908;51.354;7.458;2023-04-15T07:23:35;8.60;99.90
11704;DHT22;5908;51.354;7.458;2023-04-15T07:26:03;8.80;99.90
11704;DHT22;5908;51.354;7.458;2023-04-15T07:28:30;9.10;99.90
11704;DHT22;5908;51.354;7.458;2023-04-15T07:30:57;9.30;99.90
11704;DHT22;5908;51.354;7.458;2023-04-15T07:33:24;9.30;99.90
11704;DHT22;5908;51.354;7.458;2023-04-15T07:35:50;9.40;99.90
11704;DHT22;5908;51.354;7.458;2023-04-15T07:38:17;9.50;99.90
11704;DHT22;5908;51.354;7.458;2023-04-15T07:40:44;9.60;99.90
11704;DHT22;5908;51.354;7.458;2023-04-15T07:43:12;9.70;99.90
11704;DHT22;5908;51.354;7.458;2023-04-15T07:45:39;9.90;99.90
11704;DHT22;5908;51.354;7.458;2023-04-15T07:48:06;10.10;99.90
11704;DHT22;5908;51.354;7.458;2023-04-15T07:50:33;10.30;99.90
11704;DHT22;5908;51.354;7.458;2023-04-15T07:52:59;10.50;99.90
11704;DHT22;5908;51.354;7.458;2023-04-15T07:55:26;10.70;99.90
11704;DHT22;5908;51.354;7.458;2023-04-15T07:57:54;11.00;99.90
11704;DHT22;5908;51.354;7.458;2023-04-15T08:00:23;11.10;99.90
11704;DHT22;5908;51.354;7.458;2023-04-15T08:02:49;11.30;99.90
11704;DHT22;5908;51.354;7.458;2023-04-15T08:05:18;11.50;99.90
11704;DHT22;5908;51.354;7.458;2023-04-15T08:07:45;11.70;99.90
11704;DHT22;5908;51.354;7.458;2023-04-15T08:10:11;11.90;99.90
11704;DHT22;5908;51.354;7.458;2023-04-15T08:12:38;12.10;99.90
11704;DHT22;5908;51.354;7.458;2023-04-15T08:15:06;12.30;99.60
11704;DHT22;5908;51.354;7.458;2023-04-15T08:17:35;12.40;99.80
11704;DHT22;5908;51.354;7.458;2023-04-15T08:20:02;12.40;98.70
11704;DHT22;5908;51.354;7.458;2023-04-15T08:22:30;12.30;99.80
11704;DHT22;5908;51.354;7.458;2023-04-15T08:24:57;12.50;98.80
11704;DHT22;5908;51.354;7.458;2023-04-15T08:27:24;12.30;98.90
11704;DHT22;5908;51.354;7.458;2023-04-15T08:29:50;12.30;99.60
11704;DHT22;5908;51.354;7.458;2023-04-15T08:32:17;12.40;99.30
11704;DHT22;5908;51.354;7.458;2023-04-15T08:34:45;12.40;99.00
11704;DHT22;5908;51.354;7.458;2023-04-15T08:37:12;12.70;99.00
11704;DHT22;5908;51.354;7.458;2023-04-15T08:39:39;13.00;98.20
11704;DHT22;5908;51.354;7.458;2023-04-15T08:42:11;13.20;97.20
11704;DHT22;5908;51.354;7.458;2023-04-15T08:44:42;13.20;97.10
11704;DHT22;5908;51.354;7.458;2023-04-15T08:47:12;13.30;96.40
11704;DHT22;5908;51.354;7.458;2023-04-15T08:49:40;12.80;97.10
11704;DHT22;5908;51.354;7.458;2023-04-15T08:52:09;12.80;97.70
11704;DHT22;5908;51.354;7.458;2023-04-15T08:54:37;12.80;97.70
11704;DHT22;5908;51.354;7.458;2023-04-15T08:57:04;12.70;97.70
11704;DHT22;5908;51.354;7.458;2023-04-15T08:59:31;12.80;97.80
11704;DHT22;5908;51.354;7.458;2023-04-15T09:01:58;12.80;97.90
11704;DHT22;5908;51.354;7.458;2023-04-15T09:04:25;12.80;97.80
11704;DHT22;5908;51.354;7.458;2023-04-15T09:06:53;12.90;97.10
11704;DHT22;5908;51.354;7.458;2023-04-15T09:09:21;12.60;97.60
11704;DHT22;5908;51.354;7.458;2023-04-15T09:11:48;12.40;98.60
11704;DHT22;5908;51.354;7.458;2023-04-15T09:14:15;12.30;99.10
11704;DHT22;5908;51.354;7.458;2023-04-15T09:16:56;12.30;99.50
11704;DHT22;5908;51.354;7.458;2023-04-15T09:19:24;12.50;99.30
11704;DHT22;5908;51.354;7.458;2023-04-15T09:21:52;12.60;99.00
11704;DHT22;5908;51.354;7.458;2023-04-15T09:24:21;12.70;99.10
11704;DHT22;5908;51.354;7.458;2023-04-15T09:26:51;12.90;99.40
11704;DHT22;5908;51.354;7.458;2023-04-15T09:29:18;13.40;98.10
11704;DHT22;5908;51.354;7.458;2023-04-15T09:31:45;13.70;96.00
11704;DHT22;5908;51.354;7.458;2023-04-15T09:34:12;13.80;95.30
11704;DHT22;5908;51.354;7.458;2023-04-15T09:36:51;13.40;95.50
11704;DHT22;5908;51.354;7.458;2023-04-15T09:39:19;13.30;96.70
11704;DHT22;5908;51.354;7.458;2023-04-15T09:41:51;13.20;96.70
11704;DHT22;5908;51.354;7.458;2023-04-15T09:44:29;13.00;97.40
11704;DHT22;5908;51.354;7.458;2023-04-15T09:46:55;12.70;97.90
11704;DHT22;5908;51.354;7.458;2023-04-15T09:49:22;12.50;98.80
11704;DHT22;5908;51.354;7.458;2023-04-15T09:51:49;12.50;99.40
11704;DHT22;5908;51.354;7.458;2023-04-15T09:54:18;12.50;99.80
11704;DHT22;5908;51.354;7.458;2023-04-15T09:56:47;12.80;99.00
11704;DHT22;5908;51.354;7.458;2023-04-15T09:59:14;12.70;99.00
11704;DHT22;5908;51.354;7.458;2023-04-15T10:01:41;12.70;99.80
11704;DHT22;5908;51.354;7.458;2023-04-15T10:04:09;12.90;99.50
11704;DHT22;5908;51.354;7.458;2023-04-15T10:06:36;13.10;99.30
11704;DHT22;5908;51.354;7.458;2023-04-15T10:09:03;13.20;98.70
11704;DHT22;5908;51.354;7.458;2023-04-15T10:11:31;13.10;98.60
11704;DHT22;5908;51.354;7.458;2023-04-15T10:14:00;13.10;98.60
11704;DHT22;5908;51.354;7.458;2023-04-15T10:16:28;12.90;99.60
11704;DHT22;5908;51.354;7.458;2023-04-15T10:19:00;12.80;99.70
11704;DHT22;5908;51.354;7.458;2023-04-15T10:21:29;12.80;99.90
11704;DHT22;5908;51.354;7.458;2023-04-15T10:23:57;12.80;99.90
11704;DHT22;5908;51.354;7.458;2023-04-15T10:26:24;12.60;99.90
11704;DHT22;5908;51.354;7.458;2023-04-15T10:28:52;12.40;99.90
11704;DHT22;5908;51.354;7.458;2023-04-15T10:31:20;12.40;99.90
11704;DHT22;5908;51.354;7.458;2023-04-15T10:33:48;12.20;99.90
11704;DHT22;5908;51.354;7.458;2023-04-15T10:36:18;12.30;99.90
11704;DHT22;5908;51.354;7.458;2023-04-15T10:38:45;12.30;99.90
11704;DHT22;5908;51.354;7.458;2023-04-15T10:41:17;12.40;99.90
11704;DHT22;5908;51.354;7.458;2023-04-15T10:43:51;12.30;99.90
11704;DHT22;5908;51.354;7.458;2023-04-15T10:46:22;12.20;99.90
11704;DHT22;5908;51.354;7.458;2023-04-15T10:48:50;12.10;99.90
11704;DHT22;5908;51.354;7.458;2023-04-15T10:51:26;12.10;99.90
11704;DHT22;5908;51.354;7.458;2023-04-15T10:53:56;12.00;99.90
11704;DHT22;5908;51.354;7.458;2023-04-15T10:56:23;11.80;99.90
11704;DHT22;5908;51.354;7.458;2023-04-15T10:58:50;11.70;99.90
11704;DHT22;5908;51.354;7.458;2023-04-15T11:01:20;11.70;99.90
11704;DHT22;5908;51.354;7.458;2023-04-15T11:03:48;11.50;99.90
11704;DHT22;5908;51.354;7.458;2023-04-15T11:06:15;11.40;99.90
11704;DHT22;5908;51.354;7.458;2023-04-15T11:08:53;11.40;99.90
11704;DHT22;5908;51.354;7.458;2023-04-15T11:11:21;11.50;99.90
11704;DHT22;5908;51.354;7.458;2023-04-15T11:13:48;11.50;99.90
11704;DHT22;5908;51.354;7.458;2023-04-15T11:16:15;11.40;99.90
11704;DHT22;5908;51.354;7.458;2023-04-15T11:18:52;11.30;99.90
11704;DHT22;5908;51.354;7.458;2023-04-15T11:21:23;11.40;99.90
11704;DHT22;5908;51.354;7.458;2023-04-15T11:23:50;11.30;99.90
11704;DHT22;5908;51.354;7.458;2023-04-15T11:26:17;11.50;99.90
11704;DHT22;5908;51.354;7.458;2023-04-15T11:28:44;11.40;99.90
11704;DHT22;5908;51.354;7.458;2023-04-15T11:31:13;11.40;99.90
11704;DHT22;5908;51.354;7.458;2023-04-15T11:33:54;11.50;99.90
11704;DHT22;5908;51.354;7.458;2023-04-15T11:36:23;11.40;99.90
11704;DHT22;5908;51.354;7.458;2023-04-15T11:38:51;11.20;99.90
11704;DHT22;5908;51.354;7.458;2023-04-15T11:41:19;11.20;99.90
11704;DHT22;5908;51.354;7.458;2023-04-15T11:43:47;11.10;99.90
11704;DHT22;5908;51.354;7.458;2023-04-15T11:46:14;10.80;99.90
11704;DHT22;5908;51.354;7.458;2023-04-15T11:48:42;10.40;99.90
11704;DHT22;5908;51.354;7.458;2023-04-15T11:51:12;10.10;99.90
11704;DHT22;5908;51.354;7.458;2023-04-15T11:53:42;10.10;99.90
11704;DHT22;5908;51.354;7.458;2023-04-15T11:56:17;10.10;99.90
11704;DHT22;5908;51.354;7.458;2023-04-15T11:58:44;9.90;99.90
11704;DHT22;5908;51.354;7.458;2023-04-15T12:01:11;9.90;99.90
11704;DHT22;5908;51.354;7.458;2023-04-15T12:03:41;9.90;99.90
11704;DHT22;5908;51.354;7.458;2023-04-15T12:06:15;10.00;99.90
11704;DHT22;5908;51.354;7.458;2023-04-15T12:08:56;10.10;99.90
11704;DHT22;5908;51.354;7.458;2023-04-15T12:11:29;10.10;99.90
11704;DHT22;5908;51.354;7.458;2023-04-15T12:13:58;10.00;99.90
11704;DHT22;5908;51.354;7.458;2023-04-15T12:16:27;10.10;99.90
11704;DHT22;5908;51.354;7.458;2023-04-15T12:18:55;10.20;99.90
11704;DHT22;5908;51.354;7.458;2023-04-15T12:21:26;10.10;99.90
11704;DHT22;5908;51.354;7.458;2023-04-15T12:23:55;9.90;99.90
11704;DHT22;5908;51.354;7.458;2023-04-15T12:26:26;9.80;99.90
11704;DHT22;5908;51.354;7.458;2023-04-15T12:28:53;9.80;99.90
11704;DHT22;5908;51.354;7.458;2023-04-15T12:31:21;9.80;99.90
11704;DHT22;5908;51.354;7.458;2023-04-15T12:33:48;9.90;99.90
11704;DHT22;5908;51.354;7.458;2023-04-15T12:36:15;9.90;99.90
11704;DHT22;5908;51.354;7.458;2023-04-15T12:38:43;10.10;99.90
11704;DHT22;5908;51.354;7.458;2023-04-15T12:41:10;10.20;99.90
11704;DHT22;5908;51.354;7.458;2023-04-15T12:43:37;10.30;99.90
11704;DHT22;5908;51.354;7.458;2023-04-15T12:46:03;10.40;99.90
11704;DHT22;5908;51.354;7.458;2023-04-15T12:48:31;10.30;99.90
11704;DHT22;5908;51.354;7.458;2023-04-15T12:50:58;10.20;99.90
11704;DHT22;5908;51.354;7.458;2023-04-15T12:53:25;10.20;99.90
11704;DHT22;5908;51.354;7.458;2023-04-15T12:55:53;10.10;99.90
11704;DHT22;5908;51.354;7.458;2023-04-15T12:58:20;10.10;99.90
11704;DHT22;5908;51.354;7.458;2023-04-15T13:00:47;10.00;99.90
11704;DHT22;5908;51.354;7.458;2023-04-15T13:03:14;9.90;99.90
11704;DHT22;5908;51.354;7.458;2023-04-15T13:05:41;10.00;99.90
11704;DHT22;5908;51.354;7.458;2023-04-15T13:08:08;9.90;99.90
11704;DHT22;5908;51.354;7.458;2023-04-15T13:10:35;9.70;99.90
11704;DHT22;5908;51.354;7.458;2023-04-15T13:13:04;9.80;99.90
11704;DHT22;5908;51.354;7.458;2023-04-15T13:15:30;9.90;99.90
11704;DHT22;5908;51.354;7.458;2023-04-15T13:17:57;10.00;99.90
11704;DHT22;5908;51.354;7.458;2023-04-15T13:20:24;10.00;99.90
11704;DHT22;5908;51.354;7.458;2023-04-15T13:22:51;10.00;99.90
11704;DHT22;5908;51.354;7.458;2023-04-15T13:25:18;10.00;99.90
11704;DHT22;5908;51.354;7.458;2023-04-15T13:27:45;10.10;99.90
11704;DHT22;5908;51.354;7.458;2023-04-15T13:30:13;10.10;99.90
11704;DHT22;5908;51.354;7.458;2023-04-15T13:32:40;10.10;99.90
11704;DHT22;5908;51.354;7.458;2023-04-15T13:35:08;9.90;99.90
11704;DHT22;5908;51.354;7.458;2023-04-15T13:37:34;10.10;99.90
11704;DHT22;5908;51.354;7.458;2023-04-15T13:40:01;10.10;99.90
11704;DHT22;5908;51.354;7.458;2023-04-15T13:42:28;10.10;99.90
11704;DHT22;5908;51.354;7.458;2023-04-15T13:44:55;10.20;99.90
11704;DHT22;5908;51.354;7.458;2023-04-15T13:47:23;10.10;99.90
11704;DHT22;5908;51.354;7.458;2023-04-15T13:49:50;10.00;99.90
11704;DHT22;5908;51.354;7.458;2023-04-15T13:52:17;10.00;99.90
11704;DHT22;5908;51.354;7.458;2023-04-15T13:54:44;10.00;99.90
11704;DHT22;5908;51.354;7.458;2023-04-15T13:57:11;10.00;99.90
11704;DHT22;5908;51.354;7.458;2023-04-15T13:59:38;10.00;99.90
11704;DHT22;5908;51.354;7.458;2023-04-15T14:02:05;10.00;99.90
11704;DHT22;5908;51.354;7.458;2023-04-15T14:04:34;10.00;99.90
11704;DHT22;5908;51.354;7.458;2023-04-15T14:07:00;10.00;99.90
11704;DHT22;5908;51.354;7.458;2023-04-15T14:09:27;9.90;99.90
11704;DHT22;5908;51.354;7.458;2023-04-15T14:11:54;9.80;99.90
11704;DHT22;5908;51.354;7.458;2023-04-15T14:14:21;9.80;99.90
11704;DHT22;5908;51.354;7.458;2023-04-15T14:16:47;9.90;99.90
11704;DHT22;5908;51.354;7.458;2023-04-15T14:19:14;9.90;99.90
11704;DHT22;5908;51.354;7.458;2023-04-15T14:21:42;9.90;99.90
11704;DHT22;5908;51.354;7.458;2023-04-15T14:24:09;9.90;99.90
11704;DHT22;5908;51.354;7.458;2023-04-15T14:26:36;9.90;99.90
11704;DHT22;5908;51.354;7.458;2023-04-15T14:29:03;9.90;99.90
11704;DHT22;5908;51.354;7.458;2023-04-15T14:31:30;9.90;99.90
11704;DHT22;5908;51.354;7.458;2023-04-15T14:33:56;9.80;99.90
11704;DHT22;5908;51.354;7.458;2023-04-15T14:36:23;9.80;99.90
11704;DHT22;5908;51.354;7.458;2023-04-15T14:38:51;9.70;99.90
11704;DHT22;5908;51.354;7.458;2023-04-15T14:41:18;9.80;99.90
11704;DHT22;5908;51.354;7.458;2023-04-15T14:43:45;9.80;99.90
11704;DHT22;5908;51.354;7.458;2023-04-15T14:46:12;9.90;99.90
11704;DHT22;5908;51.354;7.458;2023-04-15T14:48:39;9.80;99.90
11704;DHT22;5908;51.354;7.458;2023-04-15T14:51:05;9.80;99.90
11704;DHT22;5908;51.354;7.458;2023-04-15T14:53:32;9.70;99.90
11704;DHT22;5908;51.354;7.458;2023-04-15T14:56:00;9.70;99.90
11704;DHT22;5908;51.354;7.458;2023-04-15T14:58:27;9.70;99.90
11704;DHT22;5908;51.354;7.458;2023-04-15T15:00:54;9.70;99.90
11704;DHT22;5908;51.354;7.458;2023-04-15T15:03:21;9.60;99.90
11704;DHT22;5908;51.354;7.458;2023-04-15T15:05:47;9.60;99.90
11704;DHT22;5908;51.354;7.458;2023-04-15T15:08:14;9.60;99.90
11704;DHT22;5908;51.354;7.458;2023-04-15T15:10:41;9.60;99.90
11704;DHT22;5908;51.354;7.458;2023-04-15T15:13:09;9.60;99.90
11704;DHT22;5908;51.354;7.458;2023-04-15T15:15:37;9.60;99.90
11704;DHT22;5908;51.354;7.458;2023-04-15T15:18:03;9.60;99.90
11704;DHT22;5908;51.354;7.458;2023-04-15T15:20:30;9.60;99.90
11704;DHT22;5908;51.354;7.458;2023-04-15T15:22:57;9.60;99.90
11704;DHT22;5908;51.354;7.458;2023-04-15T15:25:24;9.40;99.90
11704;DHT22;5908;51.354;7.458;2023-04-15T15:27:51;9.40;99.90
11704;DHT22;5908;51.354;7.458;2023-04-15T15:30:19;9.40;99.90
11704;DHT22;5908;51.354;7.458;2023-04-15T15:32:46;9.40;99.90
11704;DHT22;5908;51.354;7.458;2023-04-15T15:35:13;9.40;99.90
11704;DHT22;5908;51.354;7.458;2023-04-15T15:37:41;9.40;99.90
11704;DHT22;5908;51.354;7.458;2023-04-15T15:40:09;9.40;99.90
11704;DHT22;5908;51.354;7.458;2023-04-15T15:42:36;9.40;99.90
11704;DHT22;5908;51.354;7.458;2023-04-15T15:45:03;9.40;99.90
11704;DHT22;5908;51.354;7.458;2023-04-15T15:47:32;9.40;99.90
11704;DHT22;5908;51.354;7.458;2023-04-15T15:49:59;9.30;99.90
11704;DHT22;5908;51.354;7.458;2023-04-15T15:52:26;9.30;99.90
11704;DHT22;5908;51.354;7.458;2023-04-15T15:54:53;9.30;99.90
11704;DHT22;5908;51.354;7.458;2023-04-15T15:57:20;9.20;99.90
11704;DHT22;5908;51.354;7.458;2023-04-15T15:59:46;9.30;99.90